Time;durP1;ratioP1;P1;durP2;ratioP2;P2;SDS_P1;SDS_P2;PMS_P1;PMS_P2;Temp;Humidity;BMP_temperature;BMP_pressure;BME280_temperature;BME280_humidity;BME280_pressure;Samples;Min_cycle;Max_cycle;Signal;HPM_P1;HPM_P2
2023/12/19 00:00:47;;;;;;;69.40;35.88;;;;;;;1.08;100.00;101567.66;5090869;28;20485;-40
2023/12/19 00:03:15;;;;;;;66.85;35.55;;;;;;;1.20;100.00;101571.16;5101034;28;20048;-41
2023/12/19 00:05:44;;;;;;;62.70;35.05;;;;;;;1.17;100.00;101565.91;5106298;28;20040;-41
2023/12/19 00:08:13;;;;;;;67.80;36.22;;;;;;;1.04;100.00;101571.16;5100097;28;20050;-42
2023/12/19 00:10:43;;;;;;;65.30;36.15;;;;;;;1.02;100.00;101570.28;5096006;28;20151;-42
2023/12/19 00:13:12;;;;;;;63.90;35.03;;;;;;;1.04;100.00;101571.16;5091091;28;20076;-41
2023/12/19 00:15:41;;;;;;;62.55;33.78;;;;;;;1.13;100.00;101578.16;5091072;28;20044;-41
2023/12/19 00:18:09;;;;;;;64.93;34.10;;;;;;;1.07;100.00;101581.69;5091157;28;20044;-40
2023/12/19 00:20:38;;;;;;;61.13;33.35;;;;;;;1.01;100.00;101576.41;5096041;28;20151;-42
2023/12/19 00:23:07;;;;;;;60.10;32.88;;;;;;;0.84;100.00;101580.78;5109138;28;20044;-40
2023/12/19 00:25:35;;;;;;;54.95;31.08;;;;;;;0.72;100.00;101580.78;5112048;28;20074;-41
2023/12/19 00:28:06;;;;;;;57.78;31.95;;;;;;;0.88;100.00;101585.19;5114881;27;20043;-42
2023/12/19 00:30:35;;;;;;;55.30;30.15;;;;;;;0.36;100.00;101585.06;5114605;28;20134;-41
2023/12/19 00:33:06;;;;;;;61.17;31.95;;;;;;;0.41;100.00;101585.09;5114677;28;20139;-40
2023/12/19 00:35:35;;;;;;;57.67;32.72;;;;;;;0.56;100.00;101583.38;5114625;28;20090;-41
2023/12/19 00:38:04;;;;;;;61.53;33.08;;;;;;;0.53;100.00;101593.88;5114626;28;20044;-40
2023/12/19 00:40:32;;;;;;;56.75;32.15;;;;;;;0.56;100.00;101596.50;5111239;28;20551;-41
2023/12/19 00:43:01;;;;;;;53.75;30.15;;;;;;;0.59;100.00;101589.53;5101947;28;20084;-42
2023/12/19 00:45:30;;;;;;;50.53;27.95;;;;;;;0.57;100.00;101590.34;5114479;28;20048;-41
2023/12/19 00:47:59;;;;;;;55.08;27.95;;;;;;;0.71;100.00;101592.16;5114370;28;20134;-41
2023/12/19 00:50:27;;;;;;;51.65;28.10;;;;;;;0.97;100.00;101586.94;5114343;28;20484;-41
2023/12/19 00:52:56;;;;;;;57.67;27.65;;;;;;;0.60;100.00;101591.28;5107978;28;20047;-41
2023/12/19 00:55:26;;;;;;;53.72;27.63;;;;;;;0.76;100.00;101585.13;5095571;28;20048;-41
2023/12/19 00:57:54;;;;;;;56.53;28.65;;;;;;;0.77;100.00;101592.13;5114053;28;20078;-41
2023/12/19 01:00:23;;;;;;;51.05;28.08;;;;;;;0.60;100.00;101593.88;5114341;28;20089;-40
2023/12/19 01:02:52;;;;;;;53.95;28.10;;;;;;;0.70;100.00;101595.66;5107373;28;20040;-40
2023/12/19 01:05:21;;;;;;;52.35;27.70;;;;;;;0.82;100.00;101590.41;5101446;28;20047;-40
2023/12/19 01:07:49;;;;;;;52.15;28.33;;;;;;;0.79;100.00;101590.41;5105277;28;20489;-41
2023/12/19 01:10:18;;;;;;;53.55;29.02;;;;;;;0.90;100.00;101588.69;5093359;28;20079;-41
2023/12/19 01:12:47;;;;;;;54.50;28.63;;;;;;;0.62;100.00;101593.00;5093505;28;20048;-42
2023/12/19 01:15:15;;;;;;;54.08;28.30;;;;;;;0.52;100.00;101597.38;5093112;28;20461;-41
2023/12/19 01:17:43;;;;;;;51.90;27.83;;;;;;;0.60;100.00;101593.88;5093494;28;20048;-40
2023/12/19 01:20:14;;;;;;;56.13;28.95;;;;;;;0.60;100.00;101593.88;5095277;28;20617;-41
2023/12/19 01:22:42;;;;;;;57.50;28.75;;;;;;;0.38;100.00;101593.81;5113417;28;20075;-40
2023/12/19 01:25:11;;;;;;;60.80;30.08;;;;;;;0.39;100.00;101599.97;5109055;28;20044;-41
2023/12/19 01:27:39;;;;;;;78.07;32.83;;;;;;;-0.07;100.00;101594.53;5092911;28;20528;-40
2023/12/19 01:30:09;;;;;;;65.72;33.30;;;;;;;0.05;100.00;101583.22;5102981;28;20124;-43
2023/12/19 01:32:37;;;;;;;62.97;30.73;;;;;;;0.32;100.00;101577.19;5113281;28;20055;-42
2023/12/19 01:35:07;;;;;;;71.85;34.65;;;;;;;0.19;100.00;101574.53;5113350;28;20233;-40
2023/12/19 01:37:36;;;;;;;70.90;34.35;;;;;;;0.39;100.00;101565.84;5112967;28;20058;-40
2023/12/19 01:40:08;;;;;;;69.18;32.13;;;;;;;0.62;100.00;101558.00;5110566;28;20052;-42
2023/12/19 01:42:36;;;;;;;72.65;32.00;;;;;;;0.77;100.00;101552.75;5096202;28;20048;-44
2023/12/19 01:45:10;;;;;;;72.65;33.45;;;;;;;0.78;100.00;101541.41;5099841;28;20067;-40
2023/12/19 01:47:41;;;;;;;74.05;33.60;;;;;;;0.66;100.00;101533.47;5113030;28;20048;-42
2023/12/19 01:50:09;;;;;;;76.13;34.33;;;;;;;0.67;100.00;101532.59;5111279;28;20134;-41
2023/12/19 01:52:42;;;;;;;74.78;33.03;;;;;;;0.75;100.00;101526.47;5092725;28;20129;-41
2023/12/19 01:55:11;;;;;;;;;;;;;;;0.41;100.00;101517.72;5093308;28;20136;-41
2023/12/19 01:57:40;;;;;;;73.32;31.83;;;;;;;0.64;100.00;101508.97;5092726;28;19920;-40
2023/12/19 02:00:12;;;;;;;77.35;32.50;;;;;;;0.65;100.00;101515.97;5091261;28;20093;-40
2023/12/19 02:02:41;;;;;;;84.22;34.53;;;;;;;0.32;100.00;101515.06;5092451;28;20135;-41
2023/12/19 02:05:10;;;;;;;76.15;33.40;;;;;;;0.55;100.00;101521.22;5072109;28;20131;-41
2023/12/19 02:07:40;;;;;;;79.82;33.55;;;;;;;0.50;100.00;101525.59;5086802;28;20047;-40
2023/12/19 02:10:09;;;;;;;100.75;36.72;;;;;;;0.26;100.00;101530.81;5096231;28;20055;-41
2023/12/19 02:12:38;;;;;;;76.63;33.97;;;;;;;0.35;100.00;101519.44;5092705;28;20090;-41
2023/12/19 02:15:08;;;;;;;81.07;36.40;;;;;;;0.63;100.00;101515.09;5092076;28;20052;-42
2023/12/19 02:17:36;;;;;;;86.57;37.63;;;;;;;0.69;100.00;101521.25;5092551;28;20882;-40
2023/12/19 02:20:06;;;;;;;79.55;35.72;;;;;;;0.73;100.00;101516.88;5099566;28;20039;-42
2023/12/19 02:22:34;;;;;;;94.53;34.88;;;;;;;0.79;100.00;101517.75;5114309;28;20043;-41
2023/12/19 02:25:05;;;;;;;95.90;33.92;;;;;;;0.39;100.00;101515.97;5113904;28;20069;-41
2023/12/19 02:27:34;;;;;;;77.53;33.95;;;;;;;0.59;100.00;101511.63;5114285;28;20363;-41
2023/12/19 02:30:04;;;;;;;74.75;33.75;;;;;;;0.73;100.00;101520.38;5097328;28;20396;-43
2023/12/19 02:32:34;;;;;;;83.80;35.33;;;;;;;0.54;100.00;101516.84;5096336;28;20130;-41
2023/12/19 02:35:02;;;;;;;79.32;35.67;;;;;;;0.56;100.00;101525.59;5112076;28;20079;-41
2023/12/19 02:37:31;;;;;;;82.85;34.28;;;;;;;0.66;100.00;101515.97;5112224;28;20071;-41
2023/12/19 02:39:59;;;;;;;79.93;33.92;;;;;;;0.76;100.00;101506.34;5108722;28;20149;-41
2023/12/19 02:42:29;;;;;;;81.28;33.50;;;;;;;0.71;100.00;101513.38;5108228;28;20058;-41
2023/12/19 02:44:58;;;;;;;81.18;31.75;;;;;;;0.35;100.00;101517.69;5112261;28;20044;-41
2023/12/19 02:47:26;;;;;;;73.50;32.78;;;;;;;0.62;100.00;101502.84;5112243;28;20452;-40
2023/12/19 02:49:54;;;;;;;73.55;32.13;;;;;;;0.84;100.00;101496.72;5111809;28;20050;-41
2023/12/19 02:52:22;;;;;;;92.57;30.88;;;;;;;0.37;100.00;101510.69;5102389;28;20126;-42
2023/12/19 02:54:51;;;;;;;80.25;30.35;;;;;;;0.19;100.00;101523.78;5105176;28;20044;-41
2023/12/19 02:57:19;;;;;;;81.15;32.05;;;;;;;0.05;100.00;101520.25;5095947;28;20176;-41
2023/12/19 02:59:49;;;;;;;74.00;31.55;;;;;;;0.24;100.00;101506.31;5095538;28;20354;-42
2023/12/19 03:02:17;;;;;;;86.28;32.88;;;;;;;0.14;100.00;101509.78;5094474;28;20144;-41
2023/12/19 03:04:46;;;;;;;78.30;31.90;;;;;;;0.08;100.00;101509.75;5104759;28;20124;-41
2023/12/19 03:07:14;;;;;;;76.78;32.25;;;;;;;0.13;100.00;101506.28;5114938;28;20066;-41
2023/12/19 03:09:43;;;;;;;84.75;31.98;;;;;;;0.21;100.00;101503.69;5099876;28;20086;-42
2023/12/19 03:12:11;;;;;;;91.35;32.22;;;;;;;-0.11;100.00;101503.56;5091573;28;20511;-41
2023/12/19 03:14:39;;;;;;;88.03;33.05;;;;;;;-0.02;100.00;101491.38;5091392;28;20558;-41
2023/12/19 03:17:09;;;;;;;83.97;30.27;;;;;;;-0.06;100.00;101500.13;5091363;28;20051;-41
2023/12/19 03:19:38;;;;;;;79.65;31.48;;;;;;;0.09;100.00;101491.38;5091357;28;20052;-41
2023/12/19 03:22:07;;;;;;;90.18;31.25;;;;;;;-0.34;100.00;101495.63;5091818;28;20776;-41
2023/12/19 03:24:35;;;;;;;115.07;32.90;;;;;;;-0.52;100.00;101495.56;5095967;28;20040;-41
2023/12/19 03:27:03;;;;;;;79.32;29.23;;;;;;;-0.51;100.00;101502.53;5091173;28;20058;-41
2023/12/19 03:29:32;;;;;;;77.28;31.33;;;;;;;-0.51;100.00;101505.16;5091116;28;20048;-40
2023/12/19 03:32:01;;;;;;;82.93;29.02;;;;;;;-0.55;100.00;101495.53;5091135;28;20051;-43
2023/12/19 03:34:30;;;;;;;74.93;30.20;;;;;;;-0.13;100.00;101487.84;5102217;28;20550;-43
2023/12/19 03:36:59;;;;;;;82.93;29.40;;;;;;;-0.48;100.00;101490.34;5101572;28;20050;-41
2023/12/19 03:39:27;;;;;;;74.15;27.60;;;;;;;-0.45;100.00;101486.84;5091033;28;20048;-39
2023/12/19 03:41:55;;;;;;;82.30;26.85;;;;;;;-0.40;100.00;101487.72;5091120;28;20089;-40
2023/12/19 03:44:41;;;;;;;60.58;28.08;;;;;;;-0.10;100.00;101484.34;5091049;28;20066;-41
2023/12/19 03:47:12;;;;;;;62.88;27.27;;;;;;;0.12;100.00;101480.06;5090303;28;20128;-41
2023/12/19 03:49:42;;;;;;;78.13;28.45;;;;;;;-0.06;100.00;101492.25;5091056;28;20048;-41
2023/12/19 03:52:11;;;;;;;62.35;27.30;;;;;;;0.11;100.00;101483.56;5091044;28;20079;-41
2023/12/19 03:54:39;;;;;;;64.00;28.27;;;;;;;0.06;100.00;101474.78;5106397;28;20108;-43
2023/12/19 03:57:07;;;;;;;62.38;28.63;;;;;;;0.06;100.00;101470.41;5110595;28;20126;-40
2023/12/19 03:59:36;;;;;;;54.25;27.30;;;;;;;0.27;100.00;101473.06;5090806;28;20048;-42
2023/12/19 04:02:04;;;;;;;67.70;27.10;;;;;;;-0.03;100.00;101480.88;5094335;28;20048;-40
2023/12/19 04:04:33;;;;;;;57.20;27.50;;;;;;;0.12;100.00;101477.44;5094985;28;20496;-40
2023/12/19 04:07:03;;;;;;;52.72;25.20;;;;;;;0.33;100.00;101473.97;5096950;28;20562;-41
2023/12/19 04:09:31;;;;;;;52.60;25.95;;;;;;;0.14;100.00;101479.19;5098426;28;20051;-41
2023/12/19 04:12:02;;;;;;;55.13;25.90;;;;;;;0.05;100.00;101494.03;5104512;28;20043;-41
2023/12/19 04:14:30;;;;;;;57.00;25.52;;;;;;;0.06;100.00;101493.16;5115174;28;20047;-41
2023/12/19 04:16:59;;;;;;;61.17;26.88;;;;;;;0.11;100.00;101500.16;5095963;28;20465;-41
2023/12/19 04:19:27;;;;;;;54.45;26.38;;;;;;;0.19;100.00;101498.44;5094812;28;20048;-41
2023/12/19 04:21:57;;;;;;;55.15;25.02;;;;;;;-0.14;100.00;101508.81;5095721;28;20044;-40
2023/12/19 04:24:28;;;;;;;51.72;24.27;;;;;;;0.03;100.00;101503.63;5094397;28;20044;-41
2023/12/19 04:26:56;;;;;;;48.13;24.25;;;;;;;0.18;100.00;101488.78;5094300;28;20153;-40
2023/12/19 04:29:25;;;;;;;48.22;24.52;;;;;;;0.38;100.00;101475.69;5094546;28;20097;-40
2023/12/19 04:31:53;;;;;;;51.15;23.75;;;;;;;0.50;100.00;101475.72;5094179;28;20036;-40
2023/12/19 04:34:21;;;;;;;45.05;23.58;;;;;;;0.48;100.00;101485.34;5094191;28;20055;-40
2023/12/19 04:36:50;;;;;;;46.28;23.58;;;;;;;0.20;100.00;101489.69;5106727;28;20043;-41
2023/12/19 04:39:18;;;;;;;48.25;22.98;;;;;;;0.20;100.00;101494.06;5101823;28;20040;-40
2023/12/19 04:41:48;;;;;;;45.63;22.58;;;;;;;0.32;100.00;101507.19;5094169;28;20048;-43
2023/12/19 04:44:16;;;;;;;44.67;22.80;;;;;;;0.00;100.00;101522.88;5095588;28;20075;-42
2023/12/19 04:46:44;;;;;;;45.17;22.98;;;;;;;-0.51;100.00;101531.38;5100616;28;20043;-42
2023/12/19 04:49:13;;;;;;;44.22;21.77;;;;;;;-0.28;100.00;101528.88;5093867;28;20047;-41
2023/12/19 04:51:41;;;;;;;45.50;23.08;;;;;;;-0.53;100.00;101520.88;5093920;28;20131;-40
2023/12/19 04:54:10;;;;;;;52.53;23.25;;;;;;;-0.27;100.00;101518.41;5111561;28;20083;-41
2023/12/19 04:56:38;;;;;;;48.58;22.52;;;;;;;-0.50;100.00;101515.66;5106761;28;20040;-41
2023/12/19 04:59:08;;;;;;;56.83;25.30;;;;;;;-0.28;100.00;101513.16;5114207;28;20039;-41
2023/12/19 05:01:40;;;;;;;54.90;24.88;;;;;;;-0.19;100.00;101503.56;5114235;28;20408;-42
2023/12/19 05:04:09;;;;;;;73.70;25.20;;;;;;;-0.27;100.00;101513.16;5113910;28;20059;-43
2023/12/19 05:06:37;;;;;;;61.78;24.67;;;;;;;-0.38;100.00;101515.72;5113875;28;20087;-40
2023/12/19 05:09:06;;;;;;;59.47;25.65;;;;;;;-0.10;100.00;101519.31;5114310;28;20043;-42
2023/12/19 05:11:35;;;;;;;55.63;24.98;;;;;;;0.11;100.00;101509.78;5113644;28;20048;-40
2023/12/19 05:14:03;;;;;;;58.92;25.33;;;;;;;-0.01;100.00;101505.34;5113605;28;20039;-51
2023/12/19 05:16:32;;;;;;;62.72;25.45;;;;;;;-0.19;100.00;101518.41;5096642;27;20497;-40
2023/12/19 05:19:01;;;;;;;70.35;26.50;;;;;;;-0.11;100.00;101504.44;5111755;28;20484;-43
2023/12/19 05:21:29;;;;;;;61.55;25.08;;;;;;;-0.18;100.00;101507.94;5114022;28;20046;-40
2023/12/19 05:23:58;;;;;;;68.07;26.05;;;;;;;-0.04;100.00;101492.25;5114040;28;20377;-41
2023/12/19 05:26:26;;;;;;;55.42;25.42;;;;;;;0.15;100.00;101480.03;5113696;28;20064;-41
2023/12/19 05:28:57;;;;;;;60.03;26.02;;;;;;;-0.06;100.00;101480.88;5113529;28;20502;-41
2023/12/19 05:31:25;;;;;;;55.08;26.10;;;;;;;0.10;100.00;101463.44;5113099;28;20044;-40
2023/12/19 05:33:55;;;;;;;56.35;25.13;;;;;;;0.22;100.00;101466.94;5092860;28;20043;-41
2023/12/19 05:36:24;;;;;;;52.47;25.63;;;;;;;0.08;100.00;101468.66;5093034;28;20412;-40
2023/12/19 05:38:52;;;;;;;54.97;25.17;;;;;;;-0.16;100.00;101472.09;5093127;28;20040;-40
2023/12/19 05:41:21;;;;;;;55.65;25.95;;;;;;;-0.45;100.00;101473.75;5099704;28;20076;-41
2023/12/19 05:43:53;;;;;;;61.10;27.30;;;;;;;-0.13;100.00;101469.47;5101288;28;20047;-41
2023/12/19 05:46:22;;;;;;;62.87;26.50;;;;;;;0.05;100.00;101473.03;5113275;28;20067;-42
2023/12/19 05:48:50;;;;;;;57.47;26.20;;;;;;;0.06;100.00;101475.66;5113357;28;20044;-41
2023/12/19 05:51:20;;;;;;;66.10;27.30;;;;;;;-0.01;100.00;101463.38;5092914;28;20051;-40
2023/12/19 05:53:49;;;;;;;57.65;25.10;;;;;;;0.21;100.00;101453.81;5093000;28;20149;-40
2023/12/19 05:56:17;;;;;;;54.80;25.17;;;;;;;0.28;100.00;101458.19;5093102;28;20182;-42
2023/12/19 05:58:46;;;;;;;62.03;25.55;;;;;;;0.12;100.00;101456.44;5092742;28;20440;-40
2023/12/19 06:01:15;;;;;;;53.85;24.30;;;;;;;0.25;100.00;101448.56;5096542;28;20429;-41
2023/12/19 06:03:46;;;;;;;52.03;23.73;;;;;;;0.42;100.00;101459.09;5112207;28;20513;-41
2023/12/19 06:06:15;;;;;;;51.53;22.85;;;;;;;0.05;100.00;101454.66;5113627;27;20063;-42
2023/12/19 06:08:45;;;;;;;70.55;25.50;;;;;;;-0.07;100.00;101474.75;5112985;28;20050;-41
2023/12/19 06:11:14;;;;;;;53.15;24.23;;;;;;;-0.11;100.00;101456.38;5097975;28;20068;-40
2023/12/19 06:13:42;;;;;;;54.38;24.13;;;;;;;0.08;100.00;101452.03;5099275;28;20062;-43
2023/12/19 06:16:10;;;;;;;54.97;23.80;;;;;;;0.19;100.00;101424.97;5107832;28;20100;-42
2023/12/19 06:18:39;;;;;;;54.67;24.60;;;;;;;0.24;100.00;101417.09;5094947;28;20116;-43
2023/12/19 06:21:08;;;;;;;55.70;24.75;;;;;;;-0.34;100.00;101430.97;5100903;28;20043;-41
2023/12/19 06:23:36;;;;;;;61.78;25.88;;;;;;;-0.34;100.00;101437.97;5111755;28;20047;-41
2023/12/19 06:26:06;;;;;;;52.60;23.92;;;;;;;-0.27;100.00;101434.50;5112419;28;20052;-42
2023/12/19 06:28:35;;;;;;;57.70;25.08;;;;;;;0.09;100.00;101430.19;5113342;28;20043;-41
2023/12/19 06:31:03;;;;;;;60.17;26.58;;;;;;;-0.05;100.00;101440.66;5113144;28;20048;-43
2023/12/19 06:33:32;;;;;;;54.47;26.10;;;;;;;-0.09;100.00;101465.13;5112955;27;20420;-42
2023/12/19 06:36:01;;;;;;;56.00;24.88;;;;;;;-0.34;100.00;101466.81;5095454;27;20485;-40
2023/12/19 06:38:29;;;;;;;63.50;24.35;;;;;;;-0.60;100.00;101459.69;5092471;28;20043;-42
2023/12/19 06:41:00;;;;;;;56.97;25.15;;;;;;;-0.33;100.00;101458.06;5093164;28;20130;-41
2023/12/19 06:43:30;;;;;;;55.42;24.40;;;;;;;-0.17;100.00;101467.75;5098692;28;20044;-42
2023/12/19 06:45:58;;;;;;;56.85;24.45;;;;;;;-0.11;100.00;101467.72;5098766;28;20043;-41
2023/12/19 06:48:27;;;;;;;55.25;23.80;;;;;;;-0.25;100.00;101466.84;5097668;28;20126;-43
2023/12/19 06:50:56;;;;;;;59.30;25.00;;;;;;;0.06;100.00;101459.91;5101971;28;20051;-41
2023/12/19 06:53:24;;;;;;;58.42;24.85;;;;;;;0.11;100.00;101463.44;5099922;28;20042;-40
2023/12/19 06:55:52;;;;;;;51.55;23.85;;;;;;;0.22;100.00;101455.56;5099471;28;20089;-43
2023/12/19 06:58:21;;;;;;;52.25;24.10;;;;;;;0.16;100.00;101451.19;5101827;28;20060;-42
2023/12/19 07:00:51;;;;;;;56.65;24.08;;;;;;;0.25;100.00;101440.69;5100932;28;20052;-40
2023/12/19 07:03:21;;;;;;;52.85;23.33;;;;;;;0.23;100.00;101457.31;5097236;28;20402;-42
2023/12/19 07:05:51;;;;;;;56.33;23.48;;;;;;;0.31;100.00;101449.47;5099867;28;20044;-42
2023/12/19 07:08:19;;;;;;;53.38;23.20;;;;;;;0.42;100.00;101452.97;5103130;28;20044;-41
2023/12/19 07:10:48;;;;;;;54.25;22.73;;;;;;;0.09;100.00;101453.78;5100130;28;20052;-41
2023/12/19 07:13:16;;;;;;;57.50;25.02;;;;;;;0.25;100.00;101453.81;5101284;28;20127;-44
2023/12/19 07:15:44;;;;;;;56.22;23.60;;;;;;;0.22;100.00;101452.94;5102107;28;20783;-41
2023/12/19 07:18:14;;;;;;;52.38;23.98;;;;;;;0.26;100.00;101462.56;5107451;28;20039;-42
2023/12/19 07:20:43;;;;;;;57.28;25.80;;;;;;;-0.20;100.00;101472.94;5115158;28;20043;-42
2023/12/19 07:23:11;;;;;;;62.15;24.95;;;;;;;-0.09;100.00;101473.00;5101697;28;20132;-43
2023/12/19 07:25:39;;;;;;;59.95;25.90;;;;;;;-0.17;100.00;101467.75;5098110;28;20484;-42
2023/12/19 07:28:08;;;;;;;65.82;27.60;;;;;;;-0.42;100.00;101465.88;5098145;28;20051;-41
2023/12/19 07:30:36;;;;;;;65.95;26.33;;;;;;;-0.19;100.00;101453.75;5108120;28;20512;-43
2023/12/19 07:33:05;;;;;;;64.07;26.70;;;;;;;0.11;100.00;101437.19;5109113;28;20134;-42
2023/12/19 07:35:35;;;;;;;67.25;26.58;;;;;;;0.20;100.00;101437.22;5108878;28;20052;-42
2023/12/19 07:38:06;;;;;;;61.95;26.42;;;;;;;-0.15;100.00;101460.75;5104821;28;20043;-42
2023/12/19 07:40:36;;;;;;;65.47;28.02;;;;;;;-0.36;100.00;101465.94;5107105;28;20054;-41
2023/12/19 07:43:04;;;;;;;68.15;28.25;;;;;;;-0.21;100.00;101475.56;5108355;28;20044;-42
2023/12/19 07:45:33;;;;;;;67.72;29.15;;;;;;;-0.05;100.00;101485.25;5118915;28;20052;-41
2023/12/19 07:48:02;;;;;;;69.38;28.77;;;;;;;-0.17;100.00;101486.09;5104404;28;20069;-41
2023/12/19 07:50:30;;;;;;;64.97;28.15;;;;;;;0.10;100.00;101476.56;5103949;28;20137;-42
2023/12/19 07:53:00;;;;;;;62.72;28.25;;;;;;;0.09;100.00;101494.00;5105074;28;20040;-42
2023/12/19 07:55:28;;;;;;;61.25;28.58;;;;;;;0.24;100.00;101485.31;5099672;28;20052;-50
2023/12/19 07:57:57;;;;;;;65.00;28.80;;;;;;;0.42;100.00;101487.97;5100097;28;20112;-44
2023/12/19 08:00:28;;;;;;;58.85;27.00;;;;;;;0.24;100.00;101480.94;5100896;28;20044;-41
2023/12/19 08:02:56;;;;;;;57.00;26.75;;;;;;;0.23;100.00;101475.69;5113513;28;20039;-42
2023/12/19 08:05:25;;;;;;;58.53;27.67;;;;;;;0.22;100.00;101481.81;5104049;28;20048;-42
2023/12/19 08:07:54;;;;;;;69.78;27.85;;;;;;;-0.10;100.00;101485.22;5099108;28;20507;-42
2023/12/19 08:10:24;;;;;;;60.72;26.35;;;;;;;-0.05;100.00;101488.75;5110730;28;20151;-40
2023/12/19 08:12:52;;;;;;;60.70;27.38;;;;;;;0.09;100.00;101494.00;5104172;28;20095;-41
2023/12/19 08:15:21;;;;;;;59.40;27.50;;;;;;;0.36;100.00;101485.31;5103670;28;20047;-41
2023/12/19 08:17:49;;;;;;;64.97;28.63;;;;;;;0.33;100.00;101497.56;5101521;28;20036;-43
2023/12/19 08:20:18;;;;;;;60.22;28.30;;;;;;;0.15;100.00;101486.16;5107311;28;20041;-43
2023/12/19 08:22:46;;;;;;;63.40;27.45;;;;;;;0.32;100.00;101488.84;5094875;28;20154;-41
2023/12/19 08:25:14;;;;;;;62.95;28.08;;;;;;;0.34;100.00;101481.81;5101397;28;20063;-44
2023/12/19 08:27:44;;;;;;;65.05;30.23;;;;;;;0.55;100.00;101478.34;5102322;28;20122;-45
2023/12/19 08:30:15;;;;;;;62.30;27.15;;;;;;;0.42;100.00;101480.09;5100226;28;20055;-41
2023/12/19 08:32:43;;;;;;;59.40;26.98;;;;;;;0.41;100.00;101482.72;5094630;28;20048;-43
2023/12/19 08:35:12;;;;;;;68.38;26.75;;;;;;;0.19;100.00;101484.41;5094483;28;20055;-41
2023/12/19 08:37:43;;;;;;;61.22;26.30;;;;;;;0.27;100.00;101486.19;5094437;28;20161;-42
2023/12/19 08:40:12;;;;;;;60.72;27.73;;;;;;;0.35;100.00;101486.19;5094636;28;20059;-41
2023/12/19 08:42:41;;;;;;;59.40;26.63;;;;;;;0.52;100.00;101481.84;5094410;28;20055;-41
2023/12/19 08:45:16;;;;;;;60.35;27.05;;;;;;;0.64;100.00;101488.84;5094615;28;20044;-42
2023/12/19 08:47:45;;;;;;;52.25;25.52;;;;;;;0.73;100.00;101485.34;5093045;28;20054;-41
2023/12/19 08:50:15;;;;;;;55.65;25.58;;;;;;;0.40;100.00;101484.47;5093890;28;20048;-41
2023/12/19 08:52:43;;;;;;;59.80;25.88;;;;;;;0.42;100.00;101469.59;5094049;28;20481;-42
2023/12/19 08:55:13;;;;;;;57.55;26.85;;;;;;;0.49;100.00;101467.84;5094110;28;20155;-42
2023/12/19 08:57:42;;;;;;;61.53;27.33;;;;;;;0.63;100.00;101457.34;5093903;28;20047;-41
2023/12/19 09:00:16;;;;;;;64.95;26.15;;;;;;;0.38;100.00;101453.81;5093727;28;20075;-41
2023/12/19 09:02:45;;;;;;;;;;;;;;;0.53;100.00;101452.09;5094897;28;20351;-42
2023/12/19 09:05:15;;;;;;;58.40;25.67;;;;;;;0.33;100.00;101448.59;5093942;28;19927;-43
2023/12/19 09:07:46;;;;;;;56.05;25.05;;;;;;;0.11;100.00;101458.19;5093718;28;20157;-41
2023/12/19 09:10:16;;;;;;;61.58;27.20;;;;;;;0.07;100.00;101455.53;5093535;28;20099;-41
2023/12/19 09:12:47;;;;;;;59.60;27.25;;;;;;;0.27;100.00;101443.31;5093792;28;20051;-42
2023/12/19 09:15:16;;;;;;;64.50;27.50;;;;;;;0.37;100.00;101441.56;5093333;28;20559;-41
2023/12/19 09:17:46;;;;;;;64.10;27.42;;;;;;;0.33;100.00;101432.84;5093570;28;20055;-42
2023/12/19 09:20:15;;;;;;;63.70;27.80;;;;;;;0.34;100.00;101421.47;5093575;28;20079;-42
2023/12/19 09:22:43;;;;;;;62.65;28.10;;;;;;;0.48;100.00;101417.09;5093590;28;20052;-42
2023/12/19 09:25:14;;;;;;;85.68;27.65;;;;;;;0.34;100.00;101423.22;5093432;28;20076;-41
2023/12/19 09:27:45;;;;;;;63.63;26.77;;;;;;;0.30;100.00;101417.09;5093126;28;20516;-41
2023/12/19 09:30:15;;;;;;;62.15;26.70;;;;;;;0.27;100.00;101406.59;5093028;28;20134;-42
2023/12/19 09:32:46;;;;;;;65.28;27.65;;;;;;;0.21;100.00;101393.47;5093277;28;20063;-41
2023/12/19 09:35:15;;;;;;;60.17;26.98;;;;;;;0.37;100.00;101389.09;5092970;28;20040;-41
2023/12/19 09:37:44;;;;;;;62.70;28.13;;;;;;;-0.06;100.00;101383.84;5092874;28;20059;-41
2023/12/19 09:40:15;;;;;;;70.32;29.38;;;;;;;-0.02;100.00;101382.94;5092686;28;20043;-41
2023/12/19 09:42:44;;;;;;;67.53;28.23;;;;;;;0.07;100.00;101376.84;5092771;28;20631;-41
2023/12/19 09:45:14;;;;;;;68.03;28.20;;;;;;;0.07;100.00;101371.59;5093107;28;20055;-41
2023/12/19 09:47:58;;;;;;;65.30;28.15;;;;;;;0.29;100.00;101360.25;5093328;28;20131;-41
2023/12/19 09:50:27;;;;;;;64.55;28.02;;;;;;;0.40;100.00;101350.59;5092848;28;20131;-42
2023/12/19 09:52:57;;;;;;;62.20;27.83;;;;;;;0.67;100.00;101354.03;5092874;28;20040;-44
2023/12/19 09:55:27;;;;;;;64.05;27.70;;;;;;;0.70;100.00;101341.78;5093219;28;20044;-42
2023/12/19 09:57:58;;;;;;;65.25;27.88;;;;;;;0.66;100.00;101331.28;5092821;28;20054;-42
2023/12/19 10:00:30;;;;;;;59.28;26.92;;;;;;;0.16;100.00;101325.25;5092896;28;20147;-43
2023/12/19 10:03:00;;;;;;;60.85;26.55;;;;;;;0.47;100.00;101320.81;5092699;28;20044;-42
2023/12/19 10:05:29;;;;;;;63.08;27.50;;;;;;;0.16;100.00;101313.88;5092717;28;20044;-41
2023/12/19 10:07:58;;;;;;;61.78;26.58;;;;;;;-0.17;100.00;101317.38;5092982;28;20404;-41
2023/12/19 10:10:49;;;;;;;65.45;27.50;;;;;;;0.14;100.00;101313.00;5093023;28;20047;-42
2023/12/19 10:13:26;;;;;;;56.50;26.23;;;;;;;0.44;100.00;101299.84;5092852;28;20048;-42
2023/12/19 10:16:00;;;;;;;60.10;27.45;;;;;;;0.03;100.00;101304.28;5092835;28;20400;-44
2023/12/19 10:18:57;;;;;;;62.78;26.55;;;;;;;0.41;100.00;101294.59;5092567;28;20473;-42
2023/12/19 10:21:28;;;;;;;59.97;27.20;;;;;;;0.54;100.00;101291.06;5092490;28;20385;-42
2023/12/19 10:24:09;;;;;;;61.53;27.90;;;;;;;0.46;100.00;101290.19;5092387;28;20048;-42
2023/12/19 10:26:38;;;;;;;60.83;26.65;;;;;;;0.28;100.00;101295.47;5092021;28;20044;-42
2023/12/19 10:29:06;;;;;;;66.35;27.90;;;;;;;0.14;100.00;101292.00;5091868;28;20068;-42
2023/12/19 10:31:35;;;;;;;65.07;28.48;;;;;;;0.32;100.00;101299.88;5092218;28;20067;-41
2023/12/19 10:34:07;;;;;;;65.93;28.48;;;;;;;0.46;100.00;101297.19;5090689;28;20082;-41
2023/12/19 10:36:36;;;;;;;64.25;28.25;;;;;;;0.27;100.00;101291.09;5091723;28;20044;-41
2023/12/19 10:39:05;;;;;;;67.10;28.95;;;;;;;0.30;100.00;101285.88;5091726;28;20048;-40
2023/12/19 10:41:37;;;;;;;69.25;28.05;;;;;;;0.52;100.00;101281.44;5091815;28;20079;-41
2023/12/19 10:44:07;;;;;;;64.90;27.85;;;;;;;0.56;100.00;101273.53;5092054;28;20048;-42
2023/12/19 10:46:37;;;;;;;73.93;29.70;;;;;;;0.65;100.00;101267.38;5091956;28;20048;-43
2023/12/19 10:49:07;;;;;;;69.55;28.25;;;;;;;0.79;100.00;101260.34;5091898;28;20044;-41
2023/12/19 10:51:37;;;;;;;68.15;28.30;;;;;;;0.64;100.00;101260.41;5091776;28;20044;-41
2023/12/19 10:54:09;;;;;;;68.47;28.25;;;;;;;0.88;100.00;101254.19;5091763;28;20477;-41
2023/12/19 10:57:02;;;;;;;68.97;27.65;;;;;;;0.47;100.00;101249.94;5091658;28;20052;-41
2023/12/19 10:59:32;;;;;;;70.38;29.08;;;;;;;0.34;100.00;101256.13;5091834;28;20058;-42
2023/12/19 11:02:04;;;;;;;73.90;28.20;;;;;;;0.22;100.00;101245.66;5091381;28;20082;-42
2023/12/19 11:04:40;;;;;;;69.45;28.50;;;;;;;0.22;100.00;101238.66;5091761;28;20101;-41
2023/12/19 11:07:12;;;;;;;74.00;29.30;;;;;;;0.11;100.00;101232.56;5091254;28;20054;-42
2023/12/19 11:09:43;;;;;;;72.20;29.13;;;;;;;0.35;100.00;101231.59;5090813;28;20093;-42
2023/12/19 11:12:13;;;;;;;76.50;30.67;;;;;;;0.23;100.00;101219.41;5091259;28;20145;-41
2023/12/19 11:14:41;;;;;;;78.63;30.55;;;;;;;0.51;100.00;101212.31;5091432;28;20125;-41
2023/12/19 11:17:16;;;;;;;76.15;31.10;;;;;;;0.62;100.00;101203.53;5091091;28;20440;-40